Toulon, Nevada
Current Conditions -  °F | °C
As of 4:53 AM on Saturday 25 Oct 2014 (Local Time) from KLOL Reporting Station
Clear Clear  
Wind Chill: 34°   Ceiling: Unl
Heat Index: 34°   Visibility: 10mi
Dew Point: 20°   Wind: 0mph
Humidity: 56%   Direction: NA
Pressure: 29.9"   Gusts: NA
Location:  40.3545°N, 118.628°W
Report Text: KLOL 251153Z AUTO 00000KT 10SM CLR 01/M07 A2990 RMK AO2 SLP109 T00111067 10078 21011 56010
Loading
Personal Weather Stations






























Interactive Weather Map New forecast layout! Learn more

10-Day Weather Forecast

Advertisements
Track Severe Weather on mobile